Time;durP1;ratioP1;P1;durP2;ratioP2;P2;SDS_P1;SDS_P2;PMS_P1;PMS_P2;Temp;Humidity;BMP_temperature;BMP_pressure;BME280_temperature;BME280_humidity;BME280_pressure;Samples;Min_cycle;Max_cycle;Signal;HPM_P1;HPM_P2
2023/04/28 00:00:07;;;;;;;0.80;0.80;;;;;;;11.03;100.00;100447.38;5090176;28;20197;-75
2023/04/28 00:02:34;;;;;;;0.60;0.60;;;;;;;10.94;100.00;100442.91;5051747;28;20238;-74
2023/04/28 00:05:01;;;;;;;0.85;0.85;;;;;;;10.91;100.00;100444.56;5085341;28;20640;-74
2023/04/28 00:07:28;;;;;;;0.70;0.70;;;;;;;11.09;100.00;100450.13;5090268;28;20221;-74
2023/04/28 00:09:55;;;;;;;0.70;0.70;;;;;;;11.23;100.00;100459.03;5089998;28;20201;-75
2023/04/28 00:12:22;;;;;;;0.68;0.68;;;;;;;11.21;100.00;100459.81;5090744;28;20206;-74
2023/04/28 00:14:50;;;;;;;0.77;0.77;;;;;;;11.24;100.00;100460.75;5090293;28;20202;-75
2023/04/28 00:17:17;;;;;;;0.68;0.68;;;;;;;11.17;100.00;100463.22;5089624;28;20630;-75
2023/04/28 00:19:44;;;;;;;0.65;0.65;;;;;;;11.15;100.00;100449.34;5055011;28;20203;-75
2023/04/28 00:22:10;;;;;;;0.70;0.70;;;;;;;11.17;100.00;100468.41;5071477;28;20194;-74
2023/04/28 00:24:37;;;;;;;0.70;0.70;;;;;;;11.17;100.00;100458.91;5090201;28;20214;-75
2023/04/28 00:27:04;;;;;;;0.70;0.70;;;;;;;11.03;100.00;100465.53;5089980;28;20287;-75
2023/04/28 00:29:31;;;;;;;0.70;0.70;;;;;;;11.16;100.00;100475.34;5090506;28;20199;-75
2023/04/28 00:31:59;;;;;;;0.70;0.70;;;;;;;11.26;100.00;100479.84;5090155;28;20560;-75
2023/04/28 00:34:25;;;;;;;0.60;0.60;;;;;;;11.09;100.00;100478.66;5067610;28;20283;-74
2023/04/28 00:36:52;;;;;;;0.70;0.70;;;;;;;11.09;100.00;100477.78;5073474;28;20194;-75
2023/04/28 00:39:21;;;;;;;0.70;0.70;;;;;;;11.04;100.00;100475.09;5089787;28;20206;-75
2023/04/28 00:41:47;;;;;;;0.70;0.70;;;;;;;11.02;100.00;100489.78;5090229;28;20597;-74
2023/04/28 00:44:14;;;;;;;0.80;0.80;;;;;;;11.00;100.00;100486.25;5069775;28;20677;-74
2023/04/28 00:46:41;;;;;;;0.80;0.80;;;;;;;11.13;100.00;100497.75;5089932;28;20538;-74
2023/04/28 00:49:10;;;;;;;0.70;0.70;;;;;;;11.13;100.00;100498.59;5089958;28;20202;-75
2023/04/28 00:51:37;;;;;;;0.65;0.65;;;;;;;11.00;100.00;100493.16;5092199;28;20202;-74
2023/04/28 00:54:05;;;;;;;0.70;0.70;;;;;;;11.04;100.00;100505.34;5093983;28;20263;-75
2023/04/28 00:56:33;;;;;;;0.60;0.60;;;;;;;11.07;100.00;100503.69;5093723;28;20206;-74
2023/04/28 00:59:00;;;;;;;0.80;0.80;;;;;;;11.09;100.00;100509.81;5093419;28;20670;-74
2023/04/28 01:01:27;;;;;;;0.60;0.60;;;;;;;11.11;100.00;100499.44;5093869;28;20267;-74
2023/04/28 01:03:54;;;;;;;0.70;0.70;;;;;;;11.01;100.00;100505.28;5071233;28;20195;-74
2023/04/28 01:06:23;;;;;;;0.70;0.70;;;;;;;10.78;100.00;100463.31;5075307;28;20230;-74
2023/04/28 01:08:50;;;;;;;0.70;0.70;;;;;;;10.91;100.00;100492.13;5093670;28;20202;-74
2023/04/28 01:11:17;;;;;;;0.70;0.70;;;;;;;10.90;100.00;100515.44;5092788;28;20571;-75
2023/04/28 01:13:43;;;;;;;0.70;0.70;;;;;;;10.74;100.00;100518.56;5081788;28;20579;-75
2023/04/28 01:16:10;;;;;;;0.70;0.70;;;;;;;10.77;100.00;100518.66;5092854;28;20668;-74
2023/04/28 01:18:37;;;;;;;0.70;0.70;;;;;;;10.79;100.00;100519.53;5093023;28;20664;-74
2023/04/28 01:21:04;;;;;;;0.70;0.70;;;;;;;10.74;100.00;100515.97;5093288;28;20200;-74
2023/04/28 01:23:32;;;;;;;0.70;0.70;;;;;;;10.67;100.00;100495.94;5057522;28;20251;-74
2023/04/28 01:26:00;;;;;;;1.13;1.13;;;;;;;10.54;100.00;100504.31;5093257;28;20198;-74
2023/04/28 01:28:27;;;;;;;0.80;0.80;;;;;;;10.28;100.00;100517.56;5093151;28;20653;-74
2023/04/28 01:30:55;;;;;;;0.70;0.70;;;;;;;10.47;100.00;100518.84;5057680;28;20354;-74
2023/04/28 01:33:22;;;;;;;0.70;0.70;;;;;;;10.37;100.00;100528.16;5091520;28;20198;-74
2023/04/28 01:35:48;;;;;;;1.10;1.10;;;;;;;10.32;100.00;100528.88;5092752;28;20198;-74
2023/04/28 01:38:15;;;;;;;0.80;0.80;;;;;;;10.34;100.00;100533.25;5092857;28;20210;-73
2023/04/28 01:40:42;;;;;;;0.70;0.70;;;;;;;10.01;100.00;100444.34;5092393;28;20252;-74
2023/04/28 01:43:10;;;;;;;0.75;0.75;;;;;;;10.55;100.00;100532.88;5092847;28;20194;-74
2023/04/28 01:45:37;;;;;;;0.70;0.70;;;;;;;10.44;100.00;100532.63;5092492;28;20327;-74
2023/04/28 01:48:04;;;;;;;0.70;0.70;;;;;;;10.21;100.00;100509.59;5093005;28;20225;-74
2023/04/28 01:50:31;;;;;;;0.90;0.90;;;;;;;10.36;100.00;100525.50;5070148;28;20190;-74
2023/04/28 01:52:57;;;;;;;0.70;0.70;;;;;;;10.54;100.00;100525.03;5077575;28;20651;-74
2023/04/28 01:55:24;;;;;;;0.70;0.70;;;;;;;10.50;100.00;100515.44;5092921;28;20806;-74
2023/04/28 01:57:51;;;;;;;0.60;0.60;;;;;;;10.48;100.00;100530.09;5091794;28;20270;-74
2023/04/28 02:00:20;;;;;;;0.70;0.70;;;;;;;10.56;100.00;100523.38;5092679;28;20206;-74
2023/04/28 02:02:46;;;;;;;0.70;0.70;;;;;;;10.26;100.00;100532.19;5056090;28;20206;-74
2023/04/28 02:05:13;;;;;;;0.70;0.70;;;;;;;10.20;100.00;100529.44;5092422;28;20587;-74
2023/04/28 02:07:40;;;;;;;0.68;0.68;;;;;;;10.09;100.00;100530.03;5092377;28;20642;-74
2023/04/28 02:10:07;;;;;;;0.70;0.70;;;;;;;10.21;100.00;100523.44;5092390;28;20223;-74
2023/04/28 02:12:34;;;;;;;0.70;0.70;;;;;;;10.17;100.00;100526.78;5092349;28;20198;-74
2023/04/28 02:15:01;;;;;;;0.90;0.90;;;;;;;10.14;100.00;100525.81;5092271;28;20617;-74
2023/04/28 02:17:31;;;;;;;0.60;0.60;;;;;;;10.14;100.00;100524.13;5091995;28;20645;-73
2023/04/28 02:19:58;;;;;;;0.70;0.70;;;;;;;10.05;100.00;100531.66;5092081;28;20296;-74
2023/04/28 02:22:25;;;;;;;0.60;0.60;;;;;;;10.03;100.00;100529.84;5092300;28;20202;-74
2023/04/28 02:24:51;;;;;;;0.80;0.80;;;;;;;9.99;100.00;100528.91;5091553;28;20592;-74
2023/04/28 02:27:18;;;;;;;0.88;0.88;;;;;;;9.98;100.00;100532.34;5092202;28;20244;-73
2023/04/28 02:29:45;;;;;;;0.70;0.70;;;;;;;10.04;100.00;100534.19;5091934;28;20588;-73
2023/04/28 02:32:12;;;;;;;0.70;0.70;;;;;;;9.93;100.00;100534.81;5091859;28;20601;-74
2023/04/28 02:34:40;;;;;;;0.85;0.85;;;;;;;10.00;100.00;100525.47;5091113;28;20640;-74
2023/04/28 02:37:07;;;;;;;0.70;0.70;;;;;;;10.12;100.00;100543.94;5091736;28;20198;-74
2023/04/28 02:39:33;;;;;;;0.60;0.60;;;;;;;9.97;100.00;100507.28;5072433;28;20223;-74
2023/04/28 02:42:00;;;;;;;0.70;0.70;;;;;;;10.09;100.00;100548.16;5091905;28;20202;-74
2023/04/28 02:44:27;;;;;;;0.80;0.80;;;;;;;10.05;100.00;100549.78;5055164;28;20205;-73
2023/04/28 02:46:53;;;;;;;0.70;0.70;;;;;;;10.05;100.00;100551.50;5086026;28;20302;-76
2023/04/28 02:49:20;;;;;;;0.60;0.60;;;;;;;10.03;100.00;100553.16;5091499;28;20201;-75
2023/04/28 02:51:48;;;;;;;0.80;0.80;;;;;;;10.02;100.00;100552.31;5091460;28;20198;-73
2023/04/28 02:54:15;;;;;;;0.70;0.70;;;;;;;9.87;100.00;100549.34;5091224;28;20201;-74
2023/04/28 02:56:42;;;;;;;0.70;0.70;;;;;;;9.84;100.00;100563.09;5090885;28;20202;-73
2023/04/28 02:59:09;;;;;;;0.68;0.68;;;;;;;9.89;100.00;100569.25;5091783;28;20198;-74
2023/04/28 03:01:35;;;;;;;0.80;0.80;;;;;;;9.96;100.00;100570.28;5089450;28;20194;-74
2023/04/28 03:04:06;;;;;;;0.60;0.60;;;;;;;9.90;100.00;100544.22;5091252;28;20206;-74
2023/04/28 03:06:33;;;;;;;0.70;0.70;;;;;;;9.87;100.00;100567.47;5090989;28;20194;-73
2023/04/28 03:09:01;;;;;;;0.70;0.70;;;;;;;10.01;100.00;100563.50;5055528;28;20221;-74
2023/04/28 03:11:28;;;;;;;0.90;0.90;;;;;;;9.35;100.00;100475.50;5091325;28;20217;-75
2023/04/28 03:13:55;;;;;;;0.60;0.60;;;;;;;9.85;100.00;100575.19;5090175;28;20202;-75
2023/04/28 03:16:21;;;;;;;0.70;0.70;;;;;;;9.68;100.00;100557.47;5090764;28;20221;-75
2023/04/28 03:18:48;;;;;;;0.80;0.80;;;;;;;9.81;100.00;100577.69;5090931;28;20194;-75
2023/04/28 03:21:15;;;;;;;0.70;0.70;;;;;;;9.84;100.00;100591.59;5091215;28;20590;-75
2023/04/28 03:23:42;;;;;;;0.80;0.80;;;;;;;9.68;100.00;100588.53;5090811;28;20205;-74
2023/04/28 03:26:10;;;;;;;0.70;0.70;;;;;;;9.79;100.00;100606.09;5091557;28;20198;-74
2023/04/28 03:28:37;;;;;;;0.70;0.70;;;;;;;9.86;100.00;100599.38;5090341;28;20218;-75
2023/04/28 03:31:04;;;;;;;0.80;0.80;;;;;;;9.92;100.00;100607.28;5090962;28;20237;-74
2023/04/28 03:33:30;;;;;;;0.80;0.80;;;;;;;9.57;100.00;100569.25;5090161;28;20303;-74
2023/04/28 03:35:57;;;;;;;0.67;0.67;;;;;;;9.80;100.00;100622.53;5090641;28;20202;-74
2023/04/28 03:38:24;;;;;;;0.70;0.70;;;;;;;9.89;100.00;100625.34;5090768;28;20201;-74
2023/04/28 03:40:51;;;;;;;0.70;0.70;;;;;;;9.93;100.00;100622.00;5090353;28;20574;-74
2023/04/28 03:43:19;;;;;;;0.70;0.70;;;;;;;10.13;100.00;100625.97;5090601;28;20198;-74
2023/04/28 03:45:46;;;;;;;0.80;0.80;;;;;;;10.06;100.00;100626.66;5090113;28;20228;-75
2023/04/28 03:48:13;;;;;;;0.80;0.80;;;;;;;9.99;100.00;100631.66;5091005;28;20230;-75
2023/04/28 03:50:39;;;;;;;0.80;0.80;;;;;;;10.07;100.00;100640.50;5068136;28;20199;-75
2023/04/28 03:53:06;;;;;;;0.70;0.70;;;;;;;10.17;100.00;100642.50;5082554;28;20195;-75
2023/04/28 03:55:33;;;;;;;0.60;0.60;;;;;;;10.18;100.00;100650.34;5090489;28;20256;-76
2023/04/28 03:58:00;;;;;;;0.70;0.70;;;;;;;10.23;100.00;100659.13;5090261;28;20191;-75
2023/04/28 04:00:28;;;;;;;0.70;0.70;;;;;;;10.41;99.62;100661.28;5090255;28;20201;-74
2023/04/28 04:02:55;;;;;;;0.90;0.90;;;;;;;10.59;100.00;100664.34;5071162;28;20613;-74
2023/04/28 04:05:22;;;;;;;0.80;0.80;;;;;;;10.58;95.66;100661.69;5090543;28;20259;-74
2023/04/28 04:07:49;;;;;;;0.60;0.60;;;;;;;10.82;95.41;100657.06;5090589;28;20218;-74
2023/04/28 04:10:16;;;;;;;0.70;0.70;;;;;;;10.66;95.58;100634.22;5090222;28;20280;-71
2023/04/28 04:12:42;;;;;;;0.95;0.95;;;;;;;11.09;94.18;100668.09;5090204;28;20229;-74
2023/04/28 04:15:10;;;;;;;0.60;0.60;;;;;;;11.20;93.34;100673.53;5089952;28;20202;-74
2023/04/28 04:17:38;;;;;;;0.60;0.60;;;;;;;11.23;93.07;100669.28;5090595;28;20331;-74
2023/04/28 04:20:06;;;;;;;0.60;0.60;;;;;;;11.24;91.92;100670.13;5089595;28;20236;-74
2023/04/28 04:22:33;;;;;;;0.70;0.70;;;;;;;11.30;95.16;100673.75;5090495;28;20194;-74
2023/04/28 04:25:00;;;;;;;0.90;0.90;;;;;;;11.23;99.13;100681.38;5090102;28;20646;-75
2023/04/28 04:27:26;;;;;;;0.70;0.70;;;;;;;11.30;100.00;100678.06;5093217;28;20568;-73
2023/04/28 04:29:53;;;;;;;0.70;0.70;;;;;;;11.17;100.00;100681.22;5089739;28;20615;-74
2023/04/28 04:32:20;;;;;;;0.70;0.70;;;;;;;11.25;100.00;100679.69;5089340;28;20673;-75
2023/04/28 04:34:48;;;;;;;0.70;0.70;;;;;;;11.21;100.00;100683.03;5086632;28;20669;-74
2023/04/28 04:37:15;;;;;;;0.60;0.60;;;;;;;11.18;100.00;100688.16;5091522;28;20202;-74
2023/04/28 04:39:42;;;;;;;0.77;0.77;;;;;;;11.02;100.00;100681.78;5092028;28;20759;-74
2023/04/28 04:42:08;;;;;;;0.70;0.70;;;;;;;11.09;100.00;100681.06;5091636;28;20202;-74
2023/04/28 04:44:35;;;;;;;0.60;0.60;;;;;;;11.23;100.00;100684.84;5092803;28;20269;-74
2023/04/28 04:47:02;;;;;;;0.57;0.57;;;;;;;10.95;100.00;100664.31;5093016;28;20591;-74
2023/04/28 04:49:29;;;;;;;1.27;1.27;;;;;;;11.19;100.00;100675.25;5092993;28;20228;-73
2023/04/28 04:51:58;;;;;;;0.77;0.77;;;;;;;10.96;100.00;100660.88;5054852;28;20205;-73
2023/04/28 04:54:24;;;;;;;0.80;0.80;;;;;;;10.60;100.00;100652.22;5089684;28;20669;-73
2023/04/28 04:56:51;;;;;;;0.60;0.60;;;;;;;11.13;100.00;100695.84;5093363;28;20292;-73
2023/04/28 04:59:18;;;;;;;0.68;0.68;;;;;;;11.42;97.23;100692.19;5080863;28;20206;-74
2023/04/28 05:01:45;;;;;;;0.70;0.70;;;;;;;11.40;95.30;100700.78;5093519;28;20202;-73
2023/04/28 05:04:11;;;;;;;0.88;0.88;;;;;;;11.38;91.05;100703.34;5050214;28;20268;-74
2023/04/28 05:06:38;;;;;;;0.65;0.65;;;;;;;11.34;88.76;100704.09;5093494;28;20316;-74
2023/04/28 05:09:06;;;;;;;0.70;0.70;;;;;;;11.32;86.41;100690.22;5092834;28;20689;-73
2023/04/28 05:11:33;;;;;;;0.80;0.80;;;;;;;11.45;88.08;100700.03;5091828;28;20216;-74
2023/04/28 05:14:00;;;;;;;0.90;0.90;;;;;;;11.25;88.52;100709.13;5092771;28;20206;-74
2023/04/28 05:16:27;;;;;;;0.70;0.70;;;;;;;11.56;84.74;100707.19;5092558;28;20697;-74
2023/04/28 05:18:53;;;;;;;0.70;0.70;;;;;;;11.38;85.61;100694.66;5092781;28;20661;-73
2023/04/28 05:21:20;;;;;;;0.80;0.80;;;;;;;11.65;83.47;100696.97;5093163;28;20240;-71
2023/04/28 05:23:47;;;;;;;0.68;0.68;;;;;;;11.75;84.23;100714.53;5092672;28;20198;-72
2023/04/28 05:26:15;;;;;;;0.70;0.70;;;;;;;12.08;79.84;100711.72;5057270;28;20557;-73
2023/04/28 05:28:42;;;;;;;0.70;0.70;;;;;;;12.02;78.43;100712.47;5088046;28;20226;-73
2023/04/28 05:31:09;;;;;;;0.60;0.60;;;;;;;12.17;79.11;100710.16;5092741;28;20571;-73
2023/04/28 05:33:35;;;;;;;0.70;0.70;;;;;;;12.70;77.57;100715.44;5092343;28;20297;-72
2023/04/28 05:36:02;;;;;;;0.70;0.70;;;;;;;12.65;76.15;100714.47;5093031;28;20210;-74
2023/04/28 05:38:30;;;;;;;1.30;1.30;;;;;;;13.06;74.03;100712.53;5091883;28;20260;-72
2023/04/28 05:40:57;;;;;;;0.60;0.60;;;;;;;12.77;71.94;100723.34;5092940;28;20202;-73
2023/04/28 05:43:25;;;;;;;0.65;0.65;;;;;;;12.81;71.76;100712.16;5092040;28;20210;-73
2023/04/28 05:45:52;;;;;;;0.60;0.60;;;;;;;13.15;71.49;100717.91;5092565;28;20233;-73
2023/04/28 05:48:19;;;;;;;0.80;0.80;;;;;;;13.46;70.46;100734.84;5092775;28;20222;-72
2023/04/28 05:50:46;;;;;;;0.60;0.60;;;;;;;13.49;71.53;100730.53;5092770;28;20660;-69
2023/04/28 05:53:12;;;;;;;0.70;0.70;;;;;;;13.66;70.74;100733.41;5092557;28;20210;-68
2023/04/28 05:55:39;;;;;;;0.80;0.80;;;;;;;13.59;69.25;100726.34;5092335;28;20628;-70
2023/04/28 05:58:06;;;;;;;0.70;0.70;;;;;;;13.69;68.93;100741.25;5092427;28;20198;-68
2023/04/28 06:00:35;;;;;;;0.80;0.80;;;;;;;13.85;67.32;100746.66;5092394;28;20685;-69
2023/04/28 06:03:02;;;;;;;0.70;0.70;;;;;;;13.99;68.19;100754.66;5092062;28;20233;-72
2023/04/28 06:05:28;;;;;;;0.60;0.60;;;;;;;14.20;64.87;100744.47;5092239;28;20202;-71
2023/04/28 06:07:55;;;;;;;0.70;0.70;;;;;;;14.87;65.50;100745.16;5077729;28;20218;-72
2023/04/28 06:10:22;;;;;;;0.57;0.57;;;;;;;15.03;61.59;100760.06;5092211;28;20240;-66
2023/04/28 06:12:49;;;;;;;0.80;0.80;;;;;;;14.98;64.52;100768.75;5092161;28;20213;-68
2023/04/28 06:15:16;;;;;;;0.60;0.60;;;;;;;15.09;60.20;100747.03;5092059;28;20233;-73
2023/04/28 06:17:45;;;;;;;0.70;0.70;;;;;;;15.25;60.10;100759.38;5091970;28;20229;-72
2023/04/28 06:20:13;;;;;;;0.60;0.60;;;;;;;15.15;57.59;100762.78;5072795;28;20289;-72
2023/04/28 06:22:39;;;;;;;0.60;0.60;;;;;;;15.36;57.62;100752.47;5073096;28;20235;-72
2023/04/28 06:25:07;;;;;;;0.70;0.70;;;;;;;14.88;57.67;100720.75;5091821;28;20213;-73
2023/04/28 06:27:34;;;;;;;0.60;0.60;;;;;;;15.00;60.60;100770.50;5091643;28;20638;-72
2023/04/28 06:30:01;;;;;;;0.80;0.80;;;;;;;15.29;58.73;100750.69;5091474;28;20299;-73
2023/04/28 06:32:27;;;;;;;0.60;0.60;;;;;;;15.46;60.76;100766.47;5072972;28;20669;-72
2023/04/28 06:34:55;;;;;;;0.70;0.70;;;;;;;15.66;57.92;100771.84;5091489;28;20194;-74
2023/04/28 06:37:22;;;;;;;0.60;0.60;;;;;;;16.08;60.42;100777.28;5091377;28;20194;-72
2023/04/28 06:39:49;;;;;;;0.60;0.60;;;;;;;15.98;56.86;100782.47;5091828;28;20212;-74
2023/04/28 06:42:17;;;;;;;0.60;0.60;;;;;;;16.38;59.22;100779.09;5077293;28;20198;-74
2023/04/28 06:44:44;;;;;;;0.60;0.60;;;;;;;16.40;56.29;100777.38;5091985;28;20574;-73
2023/04/28 06:47:11;;;;;;;0.80;0.80;;;;;;;15.84;54.08;100779.75;5091690;28;20225;-74
2023/04/28 06:49:38;;;;;;;0.60;0.60;;;;;;;16.14;53.60;100774.69;5090634;28;20229;-73
2023/04/28 06:52:07;;;;;;;0.70;0.70;;;;;;;16.10;52.64;100779.88;5091514;28;20201;-74
2023/04/28 06:54:34;;;;;;;0.60;0.60;;;;;;;15.93;53.20;100766.75;5091515;28;20233;-72
2023/04/28 06:57:02;;;;;;;0.70;0.70;;;;;;;16.11;53.60;100779.91;5091499;28;20201;-72
2023/04/28 06:59:29;;;;;;;0.70;0.70;;;;;;;15.72;53.13;100788.44;5091331;28;20205;-72
2023/04/28 07:01:55;;;;;;;0.60;0.60;;;;;;;15.15;51.94;100782.81;5091354;28;20219;-73
2023/04/28 07:04:22;;;;;;;0.50;0.50;;;;;;;15.35;51.99;100776.84;5091202;28;20201;-73
2023/04/28 07:06:49;;;;;;;0.50;0.50;;;;;;;15.39;50.44;100781.25;5091230;28;20224;-73
2023/04/28 07:09:18;;;;;;;0.80;0.80;;;;;;;15.57;52.60;100782.25;5091240;28;20221;-73
2023/04/28 07:11:44;;;;;;;0.70;0.70;;;;;;;15.66;49.51;100774.47;5091281;28;20202;-73
2023/04/28 07:14:11;;;;;;;0.63;0.63;;;;;;;15.15;45.82;100768.00;5091248;28;20696;-73
2023/04/28 07:16:38;;;;;;;0.68;0.68;;;;;;;15.85;46.03;100763.22;5091100;28;20201;-72
2023/04/28 07:19:05;;;;;;;0.60;0.60;;;;;;;16.20;44.46;100769.44;5090750;28;20213;-73
2023/04/28 07:21:33;;;;;;;0.70;0.70;;;;;;;16.25;44.81;100744.19;5091245;28;20232;-72
2023/04/28 07:24:00;;;;;;;0.57;0.57;;;;;;;16.33;45.95;100773.88;5091168;28;20611;-74
2023/04/28 07:26:28;;;;;;;0.60;0.60;;;;;;;16.56;46.47;100775.69;5091402;28;20202;-73
2023/04/28 07:28:55;;;;;;;0.70;0.70;;;;;;;15.80;44.80;100776.25;5090905;28;20309;-72
2023/04/28 07:31:21;;;;;;;0.50;0.50;;;;;;;15.95;43.42;100765.00;5091014;28;20202;-74
2023/04/28 07:33:48;;;;;;;0.63;0.63;;;;;;;15.80;44.51;100785.88;5090969;28;20194;-74
2023/04/28 07:36:15;;;;;;;0.60;0.60;;;;;;;15.63;46.70;100771.81;5090654;28;20251;-73
2023/04/28 07:38:42;;;;;;;0.55;0.55;;;;;;;15.73;44.82;100784.94;5090829;28;20665;-73
2023/04/28 07:41:09;;;;;;;0.60;0.60;;;;;;;15.97;46.98;100784.22;5055495;28;20203;-74
2023/04/28 07:43:37;;;;;;;0.70;0.70;;;;;;;16.25;44.73;100783.44;5090931;28;20198;-73
2023/04/28 07:46:04;;;;;;;0.50;0.50;;;;;;;16.28;44.23;100765.13;5090598;28;20230;-73
2023/04/28 07:48:31;;;;;;;0.70;0.70;;;;;;;16.40;45.72;100780.00;5071686;28;20225;-73
2023/04/28 07:50:58;;;;;;;0.52;0.52;;;;;;;16.59;47.11;100786.16;5090938;28;20194;-73
2023/04/28 07:53:25;;;;;;;0.60;0.60;;;;;;;16.33;44.97;100788.69;5071937;28;20255;-73
2023/04/28 07:55:51;;;;;;;0.60;0.60;;;;;;;16.52;43.54;100785.25;5090416;28;20643;-73
2023/04/28 07:58:18;;;;;;;0.60;0.60;;;;;;;17.06;42.99;100778.34;5090522;28;20190;-73
2023/04/28 08:00:46;;;;;;;0.50;0.50;;;;;;;17.41;42.43;100754.75;5092371;28;20210;-73
2023/04/28 08:03:13;;;;;;;0.50;0.50;;;;;;;16.79;44.80;100787.06;5094892;28;20262;-73
2023/04/28 08:05:40;;;;;;;0.60;0.60;;;;;;;16.19;45.94;100791.28;5094773;28;20259;-74
2023/04/28 08:08:07;;;;;;;0.60;0.60;;;;;;;15.47;47.15;100801.31;5094787;28;20206;-73
2023/04/28 08:10:33;;;;;;;0.60;0.60;;;;;;;16.19;45.89;100779.94;5094543;28;20671;-73
2023/04/28 08:13:00;;;;;;;0.70;0.70;;;;;;;16.11;45.63;100765.94;5094657;28;20190;-73
2023/04/28 08:15:27;;;;;;;0.60;0.60;;;;;;;15.77;41.72;100784.09;5094650;28;20198;-73
2023/04/28 08:17:55;;;;;;;0.60;0.60;;;;;;;14.65;41.52;100696.22;5094607;28;20234;-72
2023/04/28 08:20:22;;;;;;;0.55;0.55;;;;;;;14.94;40.89;100773.06;5075620;28;20206;-75
2023/04/28 08:22:49;;;;;;;0.70;0.70;;;;;;;14.59;42.87;100761.44;5094236;28;20536;-77
2023/04/28 08:25:17;;;;;;;0.60;0.60;;;;;;;14.86;43.45;100769.50;5075505;28;20206;-74
2023/04/28 08:27:44;;;;;;;0.63;0.63;;;;;;;14.65;42.55;100764.09;5094263;28;20202;-73
2023/04/28 08:30:11;;;;;;;0.60;0.60;;;;;;;14.95;43.64;100753.91;5094420;28;20264;-72
2023/04/28 08:32:38;;;;;;;0.63;0.63;;;;;;;15.25;42.36;100748.03;5094270;28;20198;-72
2023/04/28 08:35:07;;;;;;;0.60;0.60;;;;;;;15.29;41.26;100758.53;5094236;28;20198;-73
2023/04/28 08:37:34;;;;;;;0.60;0.60;;;;;;;15.02;42.83;100771.38;5058711;28;20231;-73
2023/04/28 08:40:03;;;;;;;0.60;0.60;;;;;;;14.85;43.90;100749.47;5058467;28;20289;-73
2023/04/28 08:42:31;;;;;;;1.40;1.40;;;;;;;15.37;43.67;100758.59;5093812;28;20290;-72
2023/04/28 08:44:59;;;;;;;0.70;0.70;;;;;;;15.42;41.83;100753.34;5094067;28;20288;-73
2023/04/28 08:47:32;;;;;;;0.60;0.60;;;;;;;15.58;42.05;100756.13;5093936;28;20312;-73
2023/04/28 08:50:03;;;;;;;0.60;0.60;;;;;;;15.81;41.60;100753.59;5093618;28;20308;-73
2023/04/28 08:52:32;;;;;;;0.68;0.68;;;;;;;15.63;42.77;100748.28;5093610;28;20195;-72
2023/04/28 08:55:00;;;;;;;1.27;1.27;;;;;;;15.53;44.12;100751.72;5093591;28;20198;-72
2023/04/28 08:57:28;;;;;;;0.80;0.80;;;;;;;15.45;43.39;100740.31;5093701;28;20255;-73
2023/04/28 08:59:55;;;;;;;0.60;0.60;;;;;;;15.54;42.23;100753.47;5093612;28;20668;-72
2023/04/28 09:02:22;;;;;;;0.65;0.65;;;;;;;15.49;43.23;100753.44;5093566;28;20198;-73
2023/04/28 09:04:49;;;;;;;1.65;0.90;;;;;;;15.71;44.79;100749.22;5093456;28;20213;-72
2023/04/28 09:07:16;;;;;;;0.70;0.70;;;;;;;15.69;41.29;100748.34;5093648;28;20210;-73
2023/04/28 09:09:44;;;;;;;0.60;0.60;;;;;;;15.78;41.27;100743.13;5090999;28;20226;-73
2023/04/28 09:12:11;;;;;;;0.60;0.60;;;;;;;15.76;41.44;100739.66;5092294;28;20198;-73
2023/04/28 09:14:39;;;;;;;0.60;0.60;;;;;;;15.79;42.15;100737.06;5078729;28;20202;-73
2023/04/28 09:17:10;;;;;;;0.60;0.60;;;;;;;16.01;40.81;100738.00;5092859;28;20213;-72
2023/04/28 09:19:41;;;;;;;0.95;0.95;;;;;;;15.62;39.71;100713.44;5078720;28;20732;-72
2023/04/28 09:22:08;;;;;;;0.70;0.70;;;;;;;15.80;39.33;100728.34;5093050;28;20209;-72
2023/04/28 09:24:38;;;;;;;0.60;0.60;;;;;;;15.60;39.74;100701.22;5093104;28;20565;-72
2023/04/28 09:27:10;;;;;;;0.60;0.60;;;;;;;15.45;39.28;100727.25;5079346;28;20209;-72
2023/04/28 09:29:37;;;;;;;0.50;0.50;;;;;;;15.23;40.33;100681.84;5092985;28;20250;-74
2023/04/28 09:32:14;;;;;;;0.55;0.55;;;;;;;16.04;38.92;100723.19;5092667;28;20236;-72
2023/04/28 09:34:45;;;;;;;1.65;1.55;;;;;;;16.03;38.99;100720.56;5092867;28;20202;-72
2023/04/28 09:37:16;;;;;;;0.70;0.70;;;;;;;15.96;39.55;100717.06;5092476;28;20666;-73
2023/04/28 09:39:44;;;;;;;0.60;0.60;;;;;;;15.84;40.32;100710.03;5092821;28;20209;-72
2023/04/28 09:42:31;;;;;;;1.45;1.35;;;;;;;16.14;38.93;100714.50;5092380;28;20293;-72
2023/04/28 09:44:58;;;;;;;0.68;0.68;;;;;;;15.68;41.17;100696.91;5092506;28;20288;-73
2023/04/28 09:47:25;;;;;;;0.70;0.70;;;;;;;15.81;41.40;100714.38;5092375;28;20299;-72
2023/04/28 09:49:55;;;;;;;0.60;0.60;;;;;;;16.12;41.20;100684.84;5092627;28;20226;-72
2023/04/28 09:52:23;;;;;;;0.60;0.60;;;;;;;15.96;41.74;100685.66;5092355;28;20229;-73
2023/04/28 09:54:50;;;;;;;0.50;0.50;;;;;;;16.10;41.97;100704.88;5092428;28;20230;-74
2023/04/28 09:57:20;;;;;;;1.65;1.55;;;;;;;15.85;41.69;100690.00;5092334;28;20241;-72
2023/04/28 09:59:48;;;;;;;0.65;0.65;;;;;;;16.06;41.96;100705.75;5056884;28;20206;-73
2023/04/28 10:02:16;;;;;;;0.90;0.90;;;;;;;16.29;44.52;100698.84;5057204;28;20206;-72
2023/04/28 10:04:45;;;;;;;0.60;0.60;;;;;;;16.50;41.25;100697.97;5092342;28;20217;-72
2023/04/28 10:07:13;;;;;;;0.60;0.60;;;;;;;16.38;41.28;100700.56;5090198;28;20229;-72
2023/04/28 10:09:42;;;;;;;0.52;0.52;;;;;;;16.12;40.86;100687.47;5092057;28;20226;-73
2023/04/28 10:12:10;;;;;;;0.60;0.60;;;;;;;16.28;39.53;100694.47;5092238;28;20229;-72
2023/04/28 10:14:39;;;;;;;0.60;0.60;;;;;;;16.56;39.25;100686.66;5092048;28;20205;-73
2023/04/28 10:17:06;;;;;;;0.60;0.60;;;;;;;16.61;38.73;100700.66;5056951;28;20195;-72
2023/04/28 10:19:34;;;;;;;0.60;0.60;;;;;;;16.55;39.95;100671.81;5091913;28;20236;-72
2023/04/28 10:22:17;;;;;;;0.60;0.60;;;;;;;16.74;39.11;100689.28;5073089;28;20652;-73
2023/04/28 10:25:03;;;;;;;0.70;0.70;;;;;;;16.74;39.08;100697.13;5091862;28;20205;-72
2023/04/28 10:27:31;;;;;;;0.60;0.60;;;;;;;16.33;39.36;100689.25;5091753;28;20281;-71
2023/04/28 10:30:12;;;;;;;0.70;0.70;;;;;;;16.44;39.65;100676.16;5091818;28;20241;-72
2023/04/28 10:32:39;;;;;;;0.60;0.60;;;;;;;16.33;39.55;100689.25;5056363;28;20206;-72
2023/04/28 10:35:44;;;;;;;0.60;0.60;;;;;;;16.87;40.94;100683.19;5091856;28;20225;-73
2023/04/28 10:38:12;;;;;;;0.70;0.70;;;;;;;16.94;38.87;100687.53;5091307;28;20206;-70
2023/04/28 10:40:40;;;;;;;0.63;0.63;;;;;;;17.03;39.46;100684.91;5091509;28;20210;-75
2023/04/28 10:43:08;;;;;;;0.70;0.70;;;;;;;17.21;38.68;100671.75;5091398;28;20266;-72
2023/04/28 10:46:04;;;;;;;0.60;0.60;;;;;;;17.49;38.14;100682.16;5091492;28;20205;-71
2023/04/28 10:48:54;;;;;;;0.70;0.70;;;;;;;17.31;38.23;100676.09;5091287;28;20574;-72
2023/04/28 10:51:31;;;;;;;0.60;0.60;;;;;;;16.71;39.28;100561.84;5090984;28;20279;-71
2023/04/28 10:54:18;;;;;;;0.63;0.63;;;;;;;17.23;38.75;100656.00;5091791;28;20263;-72
2023/04/28 10:57:20;;;;;;;1.15;1.15;;;;;;;17.23;38.63;100666.50;5056062;28;20198;-72
2023/04/28 10:59:48;;;;;;;0.60;0.60;;;;;;;17.53;38.39;100662.91;5091479;28;20248;-70
2023/04/28 11:02:45;;;;;;;0.70;0.70;;;;;;;18.10;39.99;100649.53;5091611;28;20205;-72
2023/04/28 11:05:19;;;;;;;0.60;0.60;;;;;;;18.30;38.48;100652.88;5091455;28;20209;-71
2023/04/28 11:08:29;;;;;;;0.60;0.60;;;;;;;17.73;38.03;100663.72;5091058;28;20199;-72
2023/04/28 11:11:18;;;;;;;0.70;0.70;;;;;;;17.96;42.38;100655.75;5091207;28;20261;-73
2023/04/28 11:13:46;;;;;;;0.57;0.57;;;;;;;17.64;38.54;100653.28;5091097;28;20252;-70
2023/04/28 11:16:19;;;;;;;0.60;0.60;;;;;;;17.99;47.12;100646.09;5091031;28;20209;-73
2023/04/28 11:18:52;;;;;;;0.60;0.60;;;;;;;18.12;39.54;100655.63;5072256;28;20268;-71
2023/04/28 11:21:19;;;;;;;0.52;0.52;;;;;;;18.14;38.61;100653.88;5091017;28;20194;-71
2023/04/28 11:23:47;;;;;;;0.50;0.50;;;;;;;18.81;39.90;100650.75;5072179;28;20224;-71
2023/04/28 11:26:14;;;;;;;0.60;0.60;;;;;;;18.36;38.56;100627.47;5090932;28;20205;-71